sensor_id;sensor_type;location;lat;lon;timestamp;pressure;altitude;pressure_sealevel;temperature;humidity
65997;BME280;52765;52.258;21.052;2024-02-23T00:01:08;98623.91;;;8.11;93.31
65997;BME280;52765;52.258;21.052;2024-02-23T00:05:11;98607.06;;;8.03;93.54
65997;BME280;52765;52.258;21.052;2024-02-23T00:09:11;98616.22;;;8.08;93.81
65997;BME280;52765;52.258;21.052;2024-02-23T00:13:21;98609.38;;;8.06;94.19
65997;BME280;52765;52.258;21.052;2024-02-23T00:17:22;98608.81;;;8.10;93.68
65997;BME280;52765;52.258;21.052;2024-02-23T00:21:23;98609.28;;;8.14;93.72
65997;BME280;52765;52.258;21.052;2024-02-23T00:25:30;98613.19;;;8.11;94.20
65997;BME280;52765;52.258;21.052;2024-02-23T00:29:31;98605.69;;;8.07;95.12
65997;BME280;52765;52.258;21.052;2024-02-23T00:33:31;98607.91;;;8.03;95.37
65997;BME280;52765;52.258;21.052;2024-02-23T00:37:34;98601.03;;;8.01;96.42
65997;BME280;52765;52.258;21.052;2024-02-23T00:41:35;98608.63;;;7.97;97.05
65997;BME280;52765;52.258;21.052;2024-02-23T00:45:37;98596.16;;;7.89;97.54
65997;BME280;52765;52.258;21.052;2024-02-23T00:49:37;98588.28;;;7.88;97.88
65997;BME280;52765;52.258;21.052;2024-02-23T00:53:38;98590.28;;;7.86;97.96
65997;BME280;52765;52.258;21.052;2024-02-23T00:57:38;98590.19;;;7.79;98.22
65997;BME280;52765;52.258;21.052;2024-02-23T01:01:39;98576.59;;;7.81;98.84
65997;BME280;52765;52.258;21.052;2024-02-23T01:05:39;98577.16;;;7.76;99.67
65997;BME280;52765;52.258;21.052;2024-02-23T01:09:42;98569.59;;;7.80;99.60
65997;BME280;52765;52.258;21.052;2024-02-23T01:13:43;98566.91;;;7.80;99.42
65997;BME280;52765;52.258;21.052;2024-02-23T01:17:44;98561.28;;;7.74;99.93
65997;BME280;52765;52.258;21.052;2024-02-23T01:21:45;98560.78;;;7.71;99.84
65997;BME280;52765;52.258;21.052;2024-02-23T01:25:48;98561.44;;;7.73;99.99
65997;BME280;52765;52.258;21.052;2024-02-23T01:29:52;98552.56;;;7.72;100.00
65997;BME280;52765;52.258;21.052;2024-02-23T01:33:52;98552.56;;;7.72;100.00
65997;BME280;52765;52.258;21.052;2024-02-23T01:37:53;98555.91;;;7.74;100.00
65997;BME280;52765;52.258;21.052;2024-02-23T01:41:53;98556.28;;;7.71;100.00
65997;BME280;52765;52.258;21.052;2024-02-23T01:45:55;98561.06;;;7.76;100.00
65997;BME280;52765;52.258;21.052;2024-02-23T01:49:59;98538.50;;;7.70;100.00
65997;BME280;52765;52.258;21.052;2024-02-23T01:54:00;98554.41;;;7.72;100.00
65997;BME280;52765;52.258;21.052;2024-02-23T01:58:01;98565.41;;;7.77;100.00
65997;BME280;52765;52.258;21.052;2024-02-23T02:02:02;98552.84;;;7.77;100.00
65997;BME280;52765;52.258;21.052;2024-02-23T02:06:04;98542.28;;;7.76;100.00
65997;BME280;52765;52.258;21.052;2024-02-23T02:10:08;98545.66;;;7.78;100.00
65997;BME280;52765;52.258;21.052;2024-02-23T02:14:08;98543.97;;;7.77;100.00
65997;BME280;52765;52.258;21.052;2024-02-23T02:18:10;98548.78;;;7.82;100.00
65997;BME280;52765;52.258;21.052;2024-02-23T02:22:11;98528.44;;;7.87;100.00
65997;BME280;52765;52.258;21.052;2024-02-23T02:26:11;98531.59;;;7.91;100.00
65997;BME280;52765;52.258;21.052;2024-02-23T02:30:12;98543.16;;;7.91;100.00
65997;BME280;52765;52.258;21.052;2024-02-23T02:34:13;98534.94;;;7.93;100.00
65997;BME280;52765;52.258;21.052;2024-02-23T02:38:15;98543.00;;;7.93;100.00
65997;BME280;52765;52.258;21.052;2024-02-23T02:42:15;98538.44;;;7.93;100.00
65997;BME280;52765;52.258;21.052;2024-02-23T02:46:16;98529.75;;;7.91;100.00
65997;BME280;52765;52.258;21.052;2024-02-23T02:50:17;98533.09;;;7.93;100.00
65997;BME280;52765;52.258;21.052;2024-02-23T02:54:17;98534.38;;;7.97;100.00
65997;BME280;52765;52.258;21.052;2024-02-23T02:58:18;98532.63;;;8.05;100.00
65997;BME280;52765;52.258;21.052;2024-02-23T03:02:19;98534.47;;;8.04;100.00
65997;BME280;52765;52.258;21.052;2024-02-23T03:06:19;98530.78;;;8.05;100.00
65997;BME280;52765;52.258;21.052;2024-02-23T03:10:20;98527.91;;;8.07;100.00
65997;BME280;52765;52.258;21.052;2024-02-23T03:14:21;98541.59;;;8.12;100.00
65997;BME280;52765;52.258;21.052;2024-02-23T03:18:22;98526.81;;;8.16;100.00
65997;BME280;52765;52.258;21.052;2024-02-23T03:22:23;98547.50;;;8.22;100.00
65997;BME280;52765;52.258;21.052;2024-02-23T03:26:23;98547.69;;;8.21;100.00
65997;BME280;52765;52.258;21.052;2024-02-23T03:30:24;98549.19;;;8.23;100.00
65997;BME280;52765;52.258;21.052;2024-02-23T03:34:24;98557.22;;;8.23;100.00
65997;BME280;52765;52.258;21.052;2024-02-23T03:38:25;98556.94;;;8.18;100.00
65997;BME280;52765;52.258;21.052;2024-02-23T03:42:26;98561.38;;;8.11;100.00
65997;BME280;52765;52.258;21.052;2024-02-23T03:46:27;98555.53;;;8.07;100.00
65997;BME280;52765;52.258;21.052;2024-02-23T03:50:28;98568.78;;;8.09;100.00
65997;BME280;52765;52.258;21.052;2024-02-23T03:54:28;98569.72;;;8.01;100.00
65997;BME280;52765;52.258;21.052;2024-02-23T03:58:29;98573.47;;;7.92;100.00
65997;BME280;52765;52.258;21.052;2024-02-23T04:02:29;98567.19;;;7.85;100.00
65997;BME280;52765;52.258;21.052;2024-02-23T04:06:30;98575.53;;;7.90;100.00
65997;BME280;52765;52.258;21.052;2024-02-23T04:10:31;98587.59;;;7.86;100.00
65997;BME280;52765;52.258;21.052;2024-02-23T04:14:31;98593.53;;;7.81;100.00
65997;BME280;52765;52.258;21.052;2024-02-23T04:18:34;98597.59;;;7.77;100.00
65997;BME280;52765;52.258;21.052;2024-02-23T04:22:36;98586.56;;;7.72;100.00
65997;BME280;52765;52.258;21.052;2024-02-23T04:26:36;98590.09;;;7.72;100.00
65997;BME280;52765;52.258;21.052;2024-02-23T04:30:37;98592.28;;;7.69;100.00
65997;BME280;52765;52.258;21.052;2024-02-23T04:34:38;98602.38;;;7.67;100.00
65997;BME280;52765;52.258;21.052;2024-02-23T04:38:40;98600.69;;;7.66;100.00
65997;BME280;52765;52.258;21.052;2024-02-23T04:42:43;98601.72;;;7.65;100.00
65997;BME280;52765;52.258;21.052;2024-02-23T04:46:44;98605.59;;;7.62;100.00
65997;BME280;52765;52.258;21.052;2024-02-23T04:50:44;98612.81;;;7.62;100.00
65997;BME280;52765;52.258;21.052;2024-02-23T04:54:44;98610.47;;;7.58;100.00
65997;BME280;52765;52.258;21.052;2024-02-23T04:58:45;98616.00;;;7.57;100.00
65997;BME280;52765;52.258;21.052;2024-02-23T05:02:46;98626.56;;;7.58;100.00
65997;BME280;52765;52.258;21.052;2024-02-23T05:06:46;98627.56;;;7.57;100.00
65997;BME280;52765;52.258;21.052;2024-02-23T05:10:47;98632.75;;;7.59;100.00
65997;BME280;52765;52.258;21.052;2024-02-23T05:14:48;98631.56;;;7.62;100.00
65997;BME280;52765;52.258;21.052;2024-02-23T05:18:49;98637.75;;;7.62;100.00
65997;BME280;52765;52.258;21.052;2024-02-23T05:22:50;98644.31;;;7.59;100.00
65997;BME280;52765;52.258;21.052;2024-02-23T05:26:51;98643.94;;;7.63;100.00
65997;BME280;52765;52.258;21.052;2024-02-23T05:30:51;98654.00;;;7.60;100.00
65997;BME280;52765;52.258;21.052;2024-02-23T05:34:52;98653.81;;;7.62;100.00
65997;BME280;52765;52.258;21.052;2024-02-23T05:38:54;98657.72;;;7.59;100.00
65997;BME280;52765;52.258;21.052;2024-02-23T05:42:54;98647.88;;;7.52;100.00
65997;BME280;52765;52.258;21.052;2024-02-23T05:46:55;98675.16;;;7.55;100.00
65997;BME280;52765;52.258;21.052;2024-02-23T05:50:55;98678.66;;;7.56;100.00
65997;BME280;52765;52.258;21.052;2024-02-23T05:54:56;98671.13;;;7.59;100.00
65997;BME280;52765;52.258;21.052;2024-02-23T05:58:56;98684.69;;;7.58;100.00
65997;BME280;52765;52.258;21.052;2024-02-23T06:02:57;98674.78;;;7.58;100.00
65997;BME280;52765;52.258;21.052;2024-02-23T06:06:57;98692.03;;;7.56;100.00
65997;BME280;52765;52.258;21.052;2024-02-23T06:10:57;98701.25;;;7.62;100.00
65997;BME280;52765;52.258;21.052;2024-02-23T06:15:00;98715.28;;;7.64;100.00
65997;BME280;52765;52.258;21.052;2024-02-23T06:19:00;98706.06;;;7.66;100.00
65997;BME280;52765;52.258;21.052;2024-02-23T06:23:03;98717.91;;;7.72;100.00
65997;BME280;52765;52.258;21.052;2024-02-23T06:27:04;98724.28;;;7.71;100.00
65997;BME280;52765;52.258;21.052;2024-02-23T06:31:08;98721.97;;;7.68;100.00
65997;BME280;52765;52.258;21.052;2024-02-23T06:35:09;98723.44;;;7.70;100.00
65997;BME280;52765;52.258;21.052;2024-02-23T06:39:12;98736.19;;;7.68;100.00
65997;BME280;52765;52.258;21.052;2024-02-23T06:43:13;98739.72;;;7.69;100.00
65997;BME280;52765;52.258;21.052;2024-02-23T06:47:13;98747.22;;;7.73;100.00
65997;BME280;52765;52.258;21.052;2024-02-23T06:51:14;98745.00;;;7.77;100.00
65997;BME280;52765;52.258;21.052;2024-02-23T06:55:16;98748.81;;;7.83;100.00
65997;BME280;52765;52.258;21.052;2024-02-23T06:59:18;98749.03;;;7.81;100.00
65997;BME280;52765;52.258;21.052;2024-02-23T07:03:19;98749.78;;;7.90;100.00
65997;BME280;52765;52.258;21.052;2024-02-23T07:07:20;98762.00;;;7.92;100.00
65997;BME280;52765;52.258;21.052;2024-02-23T07:11:20;98771.00;;;8.00;100.00
65997;BME280;52765;52.258;21.052;2024-02-23T07:15:21;98773.81;;;8.06;100.00
65997;BME280;52765;52.258;21.052;2024-02-23T07:19:22;98778.16;;;8.07;100.00
65997;BME280;52765;52.258;21.052;2024-02-23T07:23:22;98780.53;;;8.02;100.00
65997;BME280;52765;52.258;21.052;2024-02-23T07:27:23;98783.22;;;8.02;100.00
65997;BME280;52765;52.258;21.052;2024-02-23T07:31:23;98791.56;;;8.07;100.00
65997;BME280;52765;52.258;21.052;2024-02-23T07:35:24;98790.19;;;8.11;100.00
65997;BME280;52765;52.258;21.052;2024-02-23T07:39:24;98793.16;;;8.17;100.00
65997;BME280;52765;52.258;21.052;2024-02-23T07:43:25;98806.06;;;8.21;100.00
65997;BME280;52765;52.258;21.052;2024-02-23T07:47:26;98813.97;;;8.14;100.00
65997;BME280;52765;52.258;21.052;2024-02-23T07:51:27;98816.59;;;8.23;100.00
65997;BME280;52765;52.258;21.052;2024-02-23T07:55:30;98822.63;;;8.25;100.00
65997;BME280;52765;52.258;21.052;2024-02-23T07:59:31;98826.66;;;8.21;100.00
65997;BME280;52765;52.258;21.052;2024-02-23T08:03:31;98830.50;;;8.26;100.00
65997;BME280;52765;52.258;21.052;2024-02-23T08:07:32;98845.38;;;8.29;100.00
65997;BME280;52765;52.258;21.052;2024-02-23T08:11:33;98848.84;;;8.38;100.00
65997;BME280;52765;52.258;21.052;2024-02-23T08:15:33;98845.47;;;8.44;100.00
65997;BME280;52765;52.258;21.052;2024-02-23T08:19:36;98853.34;;;8.45;100.00
65997;BME280;52765;52.258;21.052;2024-02-23T08:23:37;98849.66;;;8.46;100.00
65997;BME280;52765;52.258;21.052;2024-02-23T08:27:38;98849.13;;;8.51;100.00
65997;BME280;52765;52.258;21.052;2024-02-23T08:31:38;98865.13;;;8.59;100.00
65997;BME280;52765;52.258;21.052;2024-02-23T08:35:39;98859.22;;;8.64;100.00
65997;BME280;52765;52.258;21.052;2024-02-23T08:39:40;98874.44;;;8.72;100.00
65997;BME280;52765;52.258;21.052;2024-02-23T08:43:40;98878.34;;;8.84;100.00
65997;BME280;52765;52.258;21.052;2024-02-23T08:47:41;98881.06;;;8.99;100.00
65997;BME280;52765;52.258;21.052;2024-02-23T08:51:43;98901.13;;;9.11;100.00
65997;BME280;52765;52.258;21.052;2024-02-23T08:55:43;98893.78;;;9.05;100.00
65997;BME280;52765;52.258;21.052;2024-02-23T08:59:45;98903.03;;;9.02;100.00
65997;BME280;52765;52.258;21.052;2024-02-23T09:03:47;98902.66;;;9.05;100.00
65997;BME280;52765;52.258;21.052;2024-02-23T09:07:48;98917.69;;;9.15;100.00
65997;BME280;52765;52.258;21.052;2024-02-23T09:11:49;98906.69;;;9.24;100.00
65997;BME280;52765;52.258;21.052;2024-02-23T09:15:49;98919.56;;;9.29;100.00
65997;BME280;52765;52.258;21.052;2024-02-23T09:19:50;98913.28;;;9.37;100.00
65997;BME280;52765;52.258;21.052;2024-02-23T09:23:50;98916.97;;;9.51;100.00
65997;BME280;52765;52.258;21.052;2024-02-23T09:27:56;98923.22;;;9.66;100.00
65997;BME280;52765;52.258;21.052;2024-02-23T09:31:57;98932.28;;;9.80;100.00
65997;BME280;52765;52.258;21.052;2024-02-23T09:35:57;98934.03;;;10.03;100.00
65997;BME280;52765;52.258;21.052;2024-02-23T09:39:58;98931.22;;;10.11;100.00
65997;BME280;52765;52.258;21.052;2024-02-23T09:44:01;98937.22;;;10.28;100.00
65997;BME280;52765;52.258;21.052;2024-02-23T09:48:02;98943.63;;;10.27;100.00
65997;BME280;52765;52.258;21.052;2024-02-23T09:52:07;98941.38;;;10.30;100.00
65997;BME280;52765;52.258;21.052;2024-02-23T09:56:09;98955.22;;;10.12;100.00
65997;BME280;52765;52.258;21.052;2024-02-23T10:00:10;98959.44;;;10.00;100.00
65997;BME280;52765;52.258;21.052;2024-02-23T10:04:11;98967.78;;;9.90;100.00
65997;BME280;52765;52.258;21.052;2024-02-23T10:08:12;98965.84;;;9.84;100.00
65997;BME280;52765;52.258;21.052;2024-02-23T10:12:15;98965.56;;;9.94;100.00
65997;BME280;52765;52.258;21.052;2024-02-23T10:16:16;98960.19;;;9.94;100.00
65997;BME280;52765;52.258;21.052;2024-02-23T10:20:17;98967.88;;;9.97;100.00
65997;BME280;52765;52.258;21.052;2024-02-23T10:24:18;98971.47;;;10.04;100.00
65997;BME280;52765;52.258;21.052;2024-02-23T10:28:18;98987.25;;;10.07;100.00
65997;BME280;52765;52.258;21.052;2024-02-23T10:32:23;98983.91;;;10.05;100.00
65997;BME280;52765;52.258;21.052;2024-02-23T10:36:28;98992.19;;;10.04;100.00
65997;BME280;52765;52.258;21.052;2024-02-23T10:40:30;98992.53;;;10.00;100.00
65997;BME280;52765;52.258;21.052;2024-02-23T10:44:34;99009.44;;;9.94;100.00
65997;BME280;52765;52.258;21.052;2024-02-23T10:48:37;99016.03;;;9.92;100.00
65997;BME280;52765;52.258;21.052;2024-02-23T10:52:38;99014.66;;;9.96;100.00
65997;BME280;52765;52.258;21.052;2024-02-23T10:56:40;99014.94;;;10.01;100.00
65997;BME280;52765;52.258;21.052;2024-02-23T11:00:41;99024.28;;;10.05;100.00
65997;BME280;52765;52.258;21.052;2024-02-23T11:04:45;99029.47;;;10.07;100.00
65997;BME280;52765;52.258;21.052;2024-02-23T11:08:50;99030.56;;;10.12;100.00
65997;BME280;52765;52.258;21.052;2024-02-23T11:13:00;99029.38;;;10.15;100.00
65997;BME280;52765;52.258;21.052;2024-02-23T11:17:02;99048.69;;;10.18;100.00
65997;BME280;52765;52.258;21.052;2024-02-23T11:21:04;99048.31;;;10.22;100.00
65997;BME280;52765;52.258;21.052;2024-02-23T11:25:07;99046.63;;;10.21;100.00
65997;BME280;52765;52.258;21.052;2024-02-23T11:29:12;99054.69;;;10.21;100.00
65997;BME280;52765;52.258;21.052;2024-02-23T11:33:28;99054.25;;;10.17;100.00
65997;BME280;52765;52.258;21.052;2024-02-23T11:37:29;99060.00;;;10.14;100.00
65997;BME280;52765;52.258;21.052;2024-02-23T11:41:30;99065.97;;;10.24;100.00
65997;BME280;52765;52.258;21.052;2024-02-23T11:45:31;99079.69;;;10.29;100.00
65997;BME280;52765;52.258;21.052;2024-02-23T11:49:32;99080.06;;;10.26;100.00
65997;BME280;52765;52.258;21.052;2024-02-23T11:53:33;99075.59;;;10.18;100.00
65997;BME280;52765;52.258;21.052;2024-02-23T11:57:34;99090.63;;;10.28;100.00
65997;BME280;52765;52.258;21.052;2024-02-23T12:01:35;99090.94;;;10.33;100.00
65997;BME280;52765;52.258;21.052;2024-02-23T12:05:35;99104.41;;;10.33;100.00
65997;BME280;52765;52.258;21.052;2024-02-23T12:09:36;99100.03;;;10.32;100.00
65997;BME280;52765;52.258;21.052;2024-02-23T12:13:38;99118.00;;;10.31;100.00
65997;BME280;52765;52.258;21.052;2024-02-23T12:17:48;99109.88;;;10.40;100.00
65997;BME280;52765;52.258;21.052;2024-02-23T12:21:49;99102.81;;;10.39;100.00
65997;BME280;52765;52.258;21.052;2024-02-23T12:25:56;99122.69;;;10.38;100.00
65997;BME280;52765;52.258;21.052;2024-02-23T12:29:57;99118.78;;;10.40;100.00
65997;BME280;52765;52.258;21.052;2024-02-23T12:34:00;99125.84;;;10.56;100.00
65997;BME280;52765;52.258;21.052;2024-02-23T12:38:02;99130.38;;;10.70;100.00
65997;BME280;52765;52.258;21.052;2024-02-23T12:42:03;99119.78;;;10.69;100.00
65997;BME280;52765;52.258;21.052;2024-02-23T12:46:03;99136.41;;;10.72;100.00
65997;BME280;52765;52.258;21.052;2024-02-23T12:50:04;99131.22;;;10.71;100.00
65997;BME280;52765;52.258;21.052;2024-02-23T12:54:06;99133.91;;;10.71;100.00
65997;BME280;52765;52.258;21.052;2024-02-23T12:58:06;99142.63;;;10.73;100.00
65997;BME280;52765;52.258;21.052;2024-02-23T13:02:07;99139.84;;;10.66;100.00
65997;BME280;52765;52.258;21.052;2024-02-23T13:06:09;99155.38;;;10.64;100.00
65997;BME280;52765;52.258;21.052;2024-02-23T13:10:12;99155.38;;;10.64;100.00
65997;BME280;52765;52.258;21.052;2024-02-23T13:14:13;99152.09;;;10.54;100.00
65997;BME280;52765;52.258;21.052;2024-02-23T13:18:16;99158.44;;;10.46;100.00
65997;BME280;52765;52.258;21.052;2024-02-23T13:22:20;99165.09;;;10.50;100.00
65997;BME280;52765;52.258;21.052;2024-02-23T13:26:22;99162.69;;;10.55;100.00
65997;BME280;52765;52.258;21.052;2024-02-23T13:30:23;99170.03;;;10.62;100.00
65997;BME280;52765;52.258;21.052;2024-02-23T13:34:24;99175.06;;;10.65;100.00
65997;BME280;52765;52.258;21.052;2024-02-23T13:38:24;99188.69;;;10.63;100.00
65997;BME280;52765;52.258;21.052;2024-02-23T13:42:25;99183.88;;;10.59;100.00
65997;BME280;52765;52.258;21.052;2024-02-23T13:46:25;99203.06;;;10.55;100.00
65997;BME280;52765;52.258;21.052;2024-02-23T13:50:27;99202.81;;;10.50;100.00
65997;BME280;52765;52.258;21.052;2024-02-23T13:54:27;99204.38;;;10.45;100.00
65997;BME280;52765;52.258;21.052;2024-02-23T13:58:29;99204.56;;;10.43;100.00
65997;BME280;52765;52.258;21.052;2024-02-23T14:02:32;99206.63;;;10.41;100.00
65997;BME280;52765;52.258;21.052;2024-02-23T14:06:37;99211.13;;;10.41;100.00
65997;BME280;52765;52.258;21.052;2024-02-23T14:10:37;99211.31;;;10.39;100.00
65997;BME280;52765;52.258;21.052;2024-02-23T14:14:38;99204.28;;;10.38;100.00
65997;BME280;52765;52.258;21.052;2024-02-23T14:18:38;99213.84;;;10.41;100.00
65997;BME280;52765;52.258;21.052;2024-02-23T14:22:42;99211.53;;;10.38;100.00
65997;BME280;52765;52.258;21.052;2024-02-23T14:26:43;99216.09;;;10.29;100.00
65997;BME280;52765;52.258;21.052;2024-02-23T14:30:43;99226.53;;;10.32;100.00
65997;BME280;52765;52.258;21.052;2024-02-23T14:34:44;99231.75;;;10.33;100.00
65997;BME280;52765;52.258;21.052;2024-02-23T14:38:48;99232.41;;;10.35;100.00
65997;BME280;52765;52.258;21.052;2024-02-23T14:42:49;99242.00;;;10.30;100.00
65997;BME280;52765;52.258;21.052;2024-02-23T14:46:50;99240.91;;;10.24;100.00
65997;BME280;52765;52.258;21.052;2024-02-23T14:50:51;99244.97;;;10.20;100.00
65997;BME280;52765;52.258;21.052;2024-02-23T14:54:51;99256.00;;;10.25;100.00
65997;BME280;52765;52.258;21.052;2024-02-23T14:58:54;99264.81;;;10.19;100.00
65997;BME280;52765;52.258;21.052;2024-02-23T15:02:55;99259.41;;;10.19;100.00
65997;BME280;52765;52.258;21.052;2024-02-23T15:06:57;99269.72;;;10.15;100.00
65997;BME280;52765;52.258;21.052;2024-02-23T15:10:58;99267.88;;;10.16;100.00
65997;BME280;52765;52.258;21.052;2024-02-23T15:14:59;99262.31;;;10.17;100.00
65997;BME280;52765;52.258;21.052;2024-02-23T15:19:00;99276.59;;;10.18;100.00
65997;BME280;52765;52.258;21.052;2024-02-23T15:23:01;99265.53;;;10.13;100.00
65997;BME280;52765;52.258;21.052;2024-02-23T15:27:02;99264.41;;;10.07;100.00
65997;BME280;52765;52.258;21.052;2024-02-23T15:31:03;99279.59;;;10.00;100.00
65997;BME280;52765;52.258;21.052;2024-02-23T15:35:04;99279.78;;;9.98;100.00
65997;BME280;52765;52.258;21.052;2024-02-23T15:39:04;99285.16;;;9.98;100.00
65997;BME280;52765;52.258;21.052;2024-02-23T15:43:06;99284.69;;;9.95;100.00
65997;BME280;52765;52.258;21.052;2024-02-23T15:47:07;99287.38;;;9.95;100.00
65997;BME280;52765;52.258;21.052;2024-02-23T15:51:07;99301.69;;;9.87;100.00
65997;BME280;52765;52.258;21.052;2024-02-23T15:55:08;99309.28;;;9.84;100.00
65997;BME280;52765;52.258;21.052;2024-02-23T15:59:11;99311.31;;;9.81;100.00
65997;BME280;52765;52.258;21.052;2024-02-23T16:03:12;99309.50;;;9.74;100.00
65997;BME280;52765;52.258;21.052;2024-02-23T16:07:12;99317.78;;;9.64;100.00
65997;BME280;52765;52.258;21.052;2024-02-23T16:11:13;99325.69;;;9.66;100.00
65997;BME280;52765;52.258;21.052;2024-02-23T16:15:15;99322.22;;;9.57;100.00
65997;BME280;52765;52.258;21.052;2024-02-23T16:19:15;99343.41;;;9.52;100.00
65997;BME280;52765;52.258;21.052;2024-02-23T16:23:16;99345.97;;;9.45;100.00
65997;BME280;52765;52.258;21.052;2024-02-23T16:27:17;99349.34;;;9.39;100.00
65997;BME280;52765;52.258;21.052;2024-02-23T16:31:18;99369.19;;;9.38;100.00
65997;BME280;52765;52.258;21.052;2024-02-23T16:35:18;99368.69;;;9.34;100.00
65997;BME280;52765;52.258;21.052;2024-02-23T16:39:20;99367.34;;;9.30;100.00
65997;BME280;52765;52.258;21.052;2024-02-23T16:43:21;99376.94;;;9.33;100.00
65997;BME280;52765;52.258;21.052;2024-02-23T16:47:23;99382.47;;;9.31;100.00
65997;BME280;52765;52.258;21.052;2024-02-23T16:51:24;99379.78;;;9.31;100.00
65997;BME280;52765;52.258;21.052;2024-02-23T16:55:24;99381.78;;;9.29;100.00
65997;BME280;52765;52.258;21.052;2024-02-23T16:59:25;99380.13;;;9.28;100.00
65997;BME280;52765;52.258;21.052;2024-02-23T17:03:26;99387.69;;;9.33;100.00
65997;BME280;52765;52.258;21.052;2024-02-23T17:07:29;99389.50;;;9.32;100.00
65997;BME280;52765;52.258;21.052;2024-02-23T17:11:30;99389.66;;;9.31;100.00
65997;BME280;52765;52.258;21.052;2024-02-23T17:15:31;99394.38;;;9.29;100.00
65997;BME280;52765;52.258;21.052;2024-02-23T17:19:32;99389.19;;;9.27;100.00
65997;BME280;52765;52.258;21.052;2024-02-23T17:23:33;99391.22;;;9.25;100.00
65997;BME280;52765;52.258;21.052;2024-02-23T17:27:33;99386.66;;;9.25;100.00
65997;BME280;52765;52.258;21.052;2024-02-23T17:31:35;99383.81;;;9.27;100.00
65997;BME280;52765;52.258;21.052;2024-02-23T17:35:36;99383.81;;;9.27;100.00
65997;BME280;52765;52.258;21.052;2024-02-23T17:39:36;99382.50;;;9.23;100.00
65997;BME280;52765;52.258;21.052;2024-02-23T17:43:37;99372.56;;;9.23;100.00
65997;BME280;52765;52.258;21.052;2024-02-23T17:47:37;99363.69;;;9.23;100.00
65997;BME280;52765;52.258;21.052;2024-02-23T17:51:38;99366.88;;;9.18;100.00
65997;BME280;52765;52.258;21.052;2024-02-23T17:55:38;99365.19;;;9.17;100.00
65997;BME280;52765;52.258;21.052;2024-02-23T17:59:39;99373.78;;;9.13;100.00
65997;BME280;52765;52.258;21.052;2024-02-23T18:03:39;99378.81;;;9.07;100.00
65997;BME280;52765;52.258;21.052;2024-02-23T18:07:40;99393.28;;;9.06;100.00
65997;BME280;52765;52.258;21.052;2024-02-23T18:11:44;99395.78;;;9.08;100.00
65997;BME280;52765;52.258;21.052;2024-02-23T18:15:44;99408.19;;;9.09;100.00
65997;BME280;52765;52.258;21.052;2024-02-23T18:19:45;99413.41;;;9.11;100.00
65997;BME280;52765;52.258;21.052;2024-02-23T18:23:47;99413.56;;;9.09;100.00
65997;BME280;52765;52.258;21.052;2024-02-23T18:27:54;99412.22;;;9.13;100.00
65997;BME280;52765;52.258;21.052;2024-02-23T18:31:54;99419.09;;;9.16;100.00
65997;BME280;52765;52.258;21.052;2024-02-23T18:35:55;99409.69;;;9.20;100.00
65997;BME280;52765;52.258;21.052;2024-02-23T18:39:56;99420.94;;;9.23;100.00
65997;BME280;52765;52.258;21.052;2024-02-23T18:43:56;99408.50;;;9.22;100.00
65997;BME280;52765;52.258;21.052;2024-02-23T18:47:57;99408.34;;;9.24;100.00
65997;BME280;52765;52.258;21.052;2024-02-23T18:51:58;99401.63;;;9.20;100.00
65997;BME280;52765;52.258;21.052;2024-02-23T18:56:00;99411.56;;;9.19;100.00
65997;BME280;52765;52.258;21.052;2024-02-23T19:00:01;99413.38;;;9.19;100.00
65997;BME280;52765;52.258;21.052;2024-02-23T19:04:02;99412.38;;;9.20;100.00
65997;BME280;52765;52.258;21.052;2024-02-23T19:08:03;99411.72;;;9.18;100.00
65997;BME280;52765;52.258;21.052;2024-02-23T19:12:04;99412.56;;;9.18;100.00
65997;BME280;52765;52.258;21.052;2024-02-23T19:16:13;99409.03;;;9.18;100.00
65997;BME280;52765;52.258;21.052;2024-02-23T19:20:15;99410.88;;;9.17;100.00
65997;BME280;52765;52.258;21.052;2024-02-23T19:24:15;99410.38;;;9.14;100.00
65997;BME280;52765;52.258;21.052;2024-02-23T19:28:17;99413.06;;;9.14;100.00
65997;BME280;52765;52.258;21.052;2024-02-23T19:32:18;99415.91;;;9.12;100.00
65997;BME280;52765;52.258;21.052;2024-02-23T19:36:19;99425.84;;;9.12;100.00
65997;BME280;52765;52.258;21.052;2024-02-23T19:40:19;99431.38;;;9.10;100.00
65997;BME280;52765;52.258;21.052;2024-02-23T19:44:23;99438.28;;;9.13;100.00
65997;BME280;52765;52.258;21.052;2024-02-23T19:48:25;99440.97;;;9.13;100.00
65997;BME280;52765;52.258;21.052;2024-02-23T19:52:28;99438.44;;;9.11;100.00
65997;BME280;52765;52.258;21.052;2024-02-23T19:56:29;99448.00;;;9.14;100.00
65997;BME280;52765;52.258;21.052;2024-02-23T20:00:30;99445.81;;;9.09;100.00
65997;BME280;52765;52.258;21.052;2024-02-23T20:04:31;99446.50;;;9.11;100.00
65997;BME280;52765;52.258;21.052;2024-02-23T20:08:32;99448.16;;;9.12;100.00
65997;BME280;52765;52.258;21.052;2024-02-23T20:12:32;99455.38;;;9.12;100.00
65997;BME280;52765;52.258;21.052;2024-02-23T20:16:33;99453.53;;;9.12;100.00
65997;BME280;52765;52.258;21.052;2024-02-23T20:20:34;99450.69;;;9.14;100.00
65997;BME280;52765;52.258;21.052;2024-02-23T20:24:38;99442.13;;;9.10;100.00
65997;BME280;52765;52.258;21.052;2024-02-23T20:28:39;99442.44;;;9.07;100.00
65997;BME280;52765;52.258;21.052;2024-02-23T20:32:41;99452.38;;;9.06;100.00
65997;BME280;52765;52.258;21.052;2024-02-23T20:36:42;99453.03;;;9.00;100.00
65997;BME280;52765;52.258;21.052;2024-02-23T20:40:43;99449.34;;;9.01;100.00
65997;BME280;52765;52.258;21.052;2024-02-23T20:44:46;99448.69;;;8.99;100.00
65997;BME280;52765;52.258;21.052;2024-02-23T20:48:46;99447.66;;;9.00;100.00
65997;BME280;52765;52.258;21.052;2024-02-23T20:52:47;99446.34;;;8.96;100.00
65997;BME280;52765;52.258;21.052;2024-02-23T20:56:48;99450.34;;;8.92;100.00